Main page
METAR-TAF:

METAR-TAF

Airports :

Svolvær Airport. Helle

Svolvær, Norway

latitude: 68-15N, longitude: 014-40E, elevation: 0 m

Current weather observation

The report was made 19 minutes ago, at 02:50 UTC
Wind 15 kt from the South/Southwest
Temperature 7°C
Humidity 81%
Pressure 1014 hPa
Visibility 10 km or more
Broken clouds at a height of 2200 ft

METAR: ENSH 230250Z 21015KT 9999 BKN022 07/04 Q1014 RMK WIND 150FT 20024KT

Time: 05:09 (03:09 UTC)

Forecast

The report was made 10 hours and 9 minutes ago, at 17:00 UTC
Forecast valid from 22 at 18 UTC to 22 at 21 UTC
Wind 18 kt from the Southwest
Visibility 10 km or more
Few clouds at a height of 1200 ft
Broken clouds at a height of 2000 ft
light rain

TAF: ENSH 221700Z 2218/2221 22018KT 9999 -RA FEW012 BKN020

Weather observations and forecasts of more than 4000 airports (METAR and TAF reports).

The available stations are represented by yellow and red dots on the map.

Hover mouse over dot to see the name of the station.

Then click to see weather observations and forecasts.

To change the map : click on the green buttons with a black cross to zoom in, on the green button with a dash to zoom out, or on the green arrows for adjacent maps.


METAR-TAF: